Time;durP1;ratioP1;P1;durP2;ratioP2;P2;SDS_P1;SDS_P2;PMS_P1;PMS_P2;Temp;Humidity;BMP_temperature;BMP_pressure;BME280_temperature;BME280_humidity;BME280_pressure;Samples;Min_cycle;Max_cycle;Signal;HPM_P1;HPM_P2
2023/12/12 00:00:29;;;;;;;2.47;1.23;;;22.50;60.10;;;;;;5085072;28;20446;-67
2023/12/12 00:02:58;;;;;;;2.20;1.43;;;22.40;60.10;;;;;;5066785;28;20575;-67
2023/12/12 00:05:28;;;;;;;1.03;1.03;;;22.40;60.10;;;;;;5065766;28;20553;-67
2023/12/12 00:07:57;;;;;;;1.23;1.10;;;22.40;60.10;;;;;;5069137;28;21112;-66
2023/12/12 00:10:25;;;;;;;1.87;1.30;;;22.40;60.10;;;;;;5072862;28;20470;-66
2023/12/12 00:12:53;;;;;;;1.07;1.00;;;22.40;60.10;;;;;;5090588;28;20440;-67
2023/12/12 00:15:21;;;;;;;2.57;1.40;;;22.40;60.00;;;;;;5086013;28;21159;-67
2023/12/12 00:17:50;;;;;;;1.40;1.30;;;22.40;60.00;;;;;;5075038;28;20491;-67
2023/12/12 00:20:18;;;;;;;1.17;1.07;;;22.40;60.00;;;;;;5076635;28;20478;-66
2023/12/12 00:22:47;;;;;;;1.57;1.23;;;22.40;60.00;;;;;;5084784;28;20441;-66
2023/12/12 00:25:16;;;;;;;1.20;1.10;;;22.40;60.00;;;;;;5075817;28;20461;-66
2023/12/12 00:27:44;;;;;;;2.97;1.17;;;22.40;60.00;;;;;;5080389;28;20818;-67
2023/12/12 00:30:14;;;;;;;1.73;1.03;;;22.40;60.00;;;;;;5085117;28;20445;-68
2023/12/12 00:32:42;;;;;;;2.63;1.47;;;22.30;60.00;;;;;;5080103;28;20932;-68
2023/12/12 00:35:10;;;;;;;3.23;1.23;;;22.30;60.00;;;;;;5081024;28;20548;-66
2023/12/12 00:37:38;;;;;;;1.70;1.10;;;22.30;60.00;;;;;;5082996;28;20514;-67
2023/12/12 00:40:11;;;;;;;1.30;1.20;;;22.30;59.90;;;;;;5071808;28;20458;-67
2023/12/12 00:42:39;;;;;;;1.37;1.20;;;22.30;60.00;;;;;;5072039;28;20464;-67
2023/12/12 00:45:09;;;;;;;1.53;1.13;;;22.30;59.90;;;;;;5068782;28;20457;-68
2023/12/12 00:47:37;;;;;;;2.33;1.50;;;22.30;60.00;;;;;;5069515;28;20493;-66
2023/12/12 00:50:07;;;;;;;1.40;1.30;;;22.30;59.90;;;;;;5070381;28;20450;-67
2023/12/12 00:52:35;;;;;;;1.30;1.20;;;22.30;59.90;;;;;;5064942;28;20461;-67
2023/12/12 00:55:04;;;;;;;0.97;0.87;;;22.30;59.90;;;;;;5066915;28;20969;-67
2023/12/12 00:57:34;;;;;;;1.90;1.10;;;22.20;59.90;;;;;;5069316;28;20433;-68
2023/12/12 01:00:03;;;;;;;1.33;1.20;;;22.20;59.90;;;;;;5069590;28;20990;-68
2023/12/12 01:02:32;;;;;;;3.70;1.40;;;22.20;59.90;;;;;;5070678;28;20993;-67
2023/12/12 01:05:00;;;;;;;0.93;0.90;;;22.20;59.90;;;;;;5068015;28;20471;-66
2023/12/12 01:07:28;;;;;;;1.00;1.00;;;22.20;59.90;;;;;;5070703;28;21317;-67
2023/12/12 01:09:57;;;;;;;1.10;1.00;;;22.20;59.90;;;;;;5071348;28;20489;-68
2023/12/12 01:12:26;;;;;;;1.13;1.03;;;22.20;59.80;;;;;;5068307;28;21772;-67
2023/12/12 01:14:58;;;;;;;1.17;1.10;;;22.20;59.80;;;;;;5068643;28;20853;-67
2023/12/12 01:17:26;;;;;;;1.57;1.27;;;22.20;59.80;;;;;;5069902;28;20452;-67
2023/12/12 01:19:55;;;;;;;2.00;1.40;;;22.20;59.80;;;;;;5071473;28;20492;-66
2023/12/12 01:22:24;;;;;;;1.20;1.10;;;22.20;59.80;;;;;;5067857;28;20493;-67
2023/12/12 01:24:52;;;;;;;1.23;1.00;;;22.20;59.80;;;;;;5064843;28;20525;-67
2023/12/12 01:27:20;;;;;;;0.83;0.80;;;22.20;59.80;;;;;;5084240;28;20987;-66
2023/12/12 01:29:49;;;;;;;1.47;1.13;;;22.10;59.70;;;;;;5074637;28;20503;-66
2023/12/12 01:32:19;;;;;;;0.90;0.90;;;22.10;59.70;;;;;;5066679;28;20593;-66
2023/12/12 01:34:48;;;;;;;1.10;1.10;;;22.10;59.70;;;;;;5068504;28;20945;-67
2023/12/12 01:37:16;;;;;;;1.30;1.20;;;22.10;59.70;;;;;;5070559;28;20948;-66
2023/12/12 01:39:44;;;;;;;2.20;1.03;;;22.10;59.70;;;;;;5069683;28;20501;-67
2023/12/12 01:42:12;;;;;;;2.73;1.00;;;22.10;59.70;;;;;;5068520;28;20852;-68
2023/12/12 01:44:41;;;;;;;1.50;0.93;;;22.10;59.70;;;;;;5069410;28;20455;-66
2023/12/12 01:47:10;;;;;;;2.30;1.20;;;22.10;59.60;;;;;;5062124;28;20557;-67
2023/12/12 01:49:40;;;;;;;1.17;1.00;;;22.10;59.60;;;;;;5074300;28;20839;-66
2023/12/12 01:52:09;;;;;;;0.83;0.80;;;22.10;59.60;;;;;;5070003;28;20471;-66
2023/12/12 01:54:40;;;;;;;1.33;1.17;;;22.10;59.60;;;;;;5067407;28;20960;-67
2023/12/12 01:57:09;;;;;;;1.20;1.10;;;22.10;59.60;;;;;;5069442;28;20805;-66
2023/12/12 01:59:38;;;;;;;1.23;1.10;;;22.10;59.60;;;;;;5069882;28;20469;-66
2023/12/12 02:02:07;;;;;;;0.90;0.90;;;22.10;59.50;;;;;;5067786;28;20461;-66
2023/12/12 02:04:35;;;;;;;1.10;1.00;;;22.10;59.50;;;;;;5068015;28;20883;-66
2023/12/12 02:07:07;;;;;;;1.30;1.00;;;22.10;59.60;;;;;;5069230;28;20935;-66
2023/12/12 02:09:36;;;;;;;1.87;1.00;;;22.10;59.50;;;;;;5069502;28;20452;-67
2023/12/12 02:12:05;;;;;;;1.00;0.90;;;22.10;59.50;;;;;;5069493;28;21037;-66
2023/12/12 02:14:37;;;;;;;1.50;0.93;;;22.10;59.60;;;;;;5064580;28;20462;-68
2023/12/12 02:17:05;;;;;;;1.57;1.47;;;22.10;59.50;;;;;;5068623;28;20538;-68
2023/12/12 02:19:34;;;;;;;1.17;1.07;;;22.10;59.50;;;;;;5070986;28;20452;-66
2023/12/12 02:22:04;;;;;;;1.43;1.00;;;22.10;59.50;;;;;;5070027;28;20460;-67
2023/12/12 02:24:32;;;;;;;0.80;0.80;;;22.00;59.60;;;;;;5069023;28;20503;-67
2023/12/12 02:27:00;;;;;;;1.30;1.20;;;22.00;59.50;;;;;;5069234;28;20465;-66
2023/12/12 02:29:29;;;;;;;1.23;1.07;;;22.00;59.50;;;;;;5071022;28;20476;-66
2023/12/12 02:31:57;;;;;;;1.10;0.97;;;22.00;59.60;;;;;;5067692;28;20479;-67
2023/12/12 02:34:25;;;;;;;0.97;0.87;;;22.00;59.50;;;;;;5070845;28;20452;-66
2023/12/12 02:36:53;;;;;;;1.13;1.10;;;22.00;59.50;;;;;;5072641;28;20443;-66
2023/12/12 02:39:23;;;;;;;1.20;1.10;;;22.00;59.50;;;;;;5073215;28;20460;-67
2023/12/12 02:41:51;;;;;;;0.87;0.87;;;22.00;59.50;;;;;;5073716;28;20445;-68
2023/12/12 02:44:19;;;;;;;0.83;0.80;;;22.00;59.50;;;;;;5072173;28;20448;-66
2023/12/12 02:46:47;;;;;;;1.10;1.00;;;22.00;59.60;;;;;;5069978;28;20460;-66
2023/12/12 02:49:16;;;;;;;0.97;0.87;;;22.00;59.50;;;;;;5075775;28;20449;-66
2023/12/12 02:51:44;;;;;;;1.03;0.90;;;22.00;59.50;;;;;;5065638;28;20453;-66
2023/12/12 02:54:12;;;;;;;0.80;0.73;;;22.00;59.50;;;;;;5072890;28;20457;-66
2023/12/12 02:56:42;;;;;;;1.13;1.00;;;22.00;59.50;;;;;;5065597;28;20473;-67
2023/12/12 02:59:10;;;;;;;0.87;0.87;;;21.90;59.50;;;;;;5070206;28;20468;-67
2023/12/12 03:01:38;;;;;;;0.80;0.80;;;21.90;59.50;;;;;;5070588;28;20472;-66
2023/12/12 03:04:06;;;;;;;0.77;0.77;;;21.90;59.60;;;;;;5072187;28;20580;-66
2023/12/12 03:06:35;;;;;;;1.10;1.00;;;21.90;59.60;;;;;;5071484;28;20940;-66
2023/12/12 03:09:03;;;;;;;0.90;0.70;;;21.90;59.50;;;;;;5072105;28;20472;-67
2023/12/12 03:11:34;;;;;;;0.80;0.80;;;21.90;59.60;;;;;;5073730;28;20481;-67
2023/12/12 03:14:03;;;;;;;1.27;0.93;;;21.90;59.50;;;;;;5072550;28;20491;-66
2023/12/12 03:16:32;;;;;;;1.03;0.80;;;21.90;59.60;;;;;;5077120;28;20935;-66
2023/12/12 03:19:00;;;;;;;1.93;1.27;;;21.90;59.50;;;;;;5085261;28;20483;-68
2023/12/12 03:21:28;;;;;;;1.30;1.20;;;21.90;59.50;;;;;;5071711;28;20449;-67
2023/12/12 03:23:56;;;;;;;0.90;0.90;;;21.90;59.50;;;;;;5072258;28;20455;-66
2023/12/12 03:26:24;;;;;;;1.10;1.00;;;21.90;59.50;;;;;;5070343;28;20464;-66
2023/12/12 03:28:53;;;;;;;0.87;0.80;;;21.80;59.60;;;;;;5073272;28;20478;-66
2023/12/12 03:31:22;;;;;;;1.20;0.93;;;21.90;59.50;;;;;;5071727;28;20464;-66
2023/12/12 03:33:50;;;;;;;1.00;0.90;;;21.80;59.50;;;;;;5072369;28;20977;-67
2023/12/12 03:36:19;;;;;;;0.77;0.60;;;21.80;59.50;;;;;;5071979;28;20466;-66
2023/12/12 03:38:47;;;;;;;1.13;1.00;;;21.80;59.50;;;;;;5071078;28;20449;-66
2023/12/12 03:41:16;;;;;;;0.87;0.87;;;21.80;59.50;;;;;;5065544;28;20452;-67
2023/12/12 03:43:44;;;;;;;1.60;1.20;;;21.80;59.50;;;;;;5073218;28;20457;-67
2023/12/12 03:46:12;;;;;;;1.13;1.03;;;21.80;59.50;;;;;;5071607;28;21030;-66
2023/12/12 03:48:42;;;;;;;0.83;0.80;;;21.80;59.50;;;;;;5072466;28;20447;-67
2023/12/12 03:51:11;;;;;;;0.93;0.93;;;21.80;59.50;;;;;;5071318;28;20996;-67
2023/12/12 03:53:40;;;;;;;1.07;0.80;;;21.80;59.50;;;;;;5072423;28;20959;-66
2023/12/12 03:56:09;;;;;;;0.70;0.70;;;21.80;59.50;;;;;;5064233;28;20545;-66
2023/12/12 03:58:37;;;;;;;1.20;1.10;;;21.80;59.50;;;;;;5068948;28;20506;-66
2023/12/12 04:01:06;;;;;;;0.70;0.70;;;21.80;59.50;;;;;;5071124;28;20448;-68
2023/12/12 04:03:34;;;;;;;1.20;1.10;;;21.80;59.50;;;;;;5071176;28;20488;-66
2023/12/12 04:06:05;;;;;;;2.20;1.30;;;21.80;59.50;;;;;;5071908;28;20448;-67
2023/12/12 04:08:34;;;;;;;0.90;0.90;;;21.80;59.50;;;;;;5072055;28;21343;-66
2023/12/12 04:11:02;;;;;;;1.10;0.80;;;21.80;59.50;;;;;;5070196;28;20868;-67
2023/12/12 04:13:30;;;;;;;0.80;0.80;;;21.80;59.50;;;;;;5070404;28;20476;-67
2023/12/12 04:15:58;;;;;;;1.07;0.87;;;21.80;59.50;;;;;;5071921;28;20529;-66
2023/12/12 04:18:27;;;;;;;1.00;0.83;;;21.80;59.50;;;;;;5070222;28;20560;-66
2023/12/12 04:20:55;;;;;;;1.33;1.23;;;21.70;59.50;;;;;;5080919;28;20446;-66
2023/12/12 04:23:24;;;;;;;1.23;1.10;;;21.70;59.50;;;;;;5070932;28;21138;-66
2023/12/12 04:25:53;;;;;;;1.17;1.07;;;21.70;59.50;;;;;;5072122;28;20467;-69
2023/12/12 04:28:21;;;;;;;1.53;0.90;;;21.70;59.50;;;;;;5069614;28;20973;-67
2023/12/12 04:30:49;;;;;;;1.00;0.73;;;21.70;59.50;;;;;;5070545;28;20500;-67
2023/12/12 04:33:17;;;;;;;1.50;1.30;;;21.70;59.50;;;;;;5066153;28;20471;-66
2023/12/12 04:35:46;;;;;;;1.50;1.30;;;21.70;59.50;;;;;;5072011;28;20461;-66
2023/12/12 04:38:14;;;;;;;0.60;0.60;;;21.70;59.50;;;;;;5073850;28;20440;-66
2023/12/12 04:40:44;;;;;;;0.80;0.80;;;21.70;59.50;;;;;;5069721;28;20483;-69
2023/12/12 04:43:12;;;;;;;0.73;0.73;;;21.70;59.50;;;;;;5085439;28;20455;-66
2023/12/12 04:45:40;;;;;;;0.97;0.93;;;21.70;59.50;;;;;;5074748;28;20455;-66
2023/12/12 04:48:09;;;;;;;0.57;0.57;;;21.70;59.40;;;;;;5067803;28;20538;-66
2023/12/12 04:50:37;;;;;;;0.70;0.70;;;21.70;59.50;;;;;;5068031;28;21132;-66
2023/12/12 04:53:05;;;;;;;1.50;0.83;;;21.70;59.40;;;;;;5069605;28;20467;-67
2023/12/12 04:55:34;;;;;;;1.33;0.90;;;21.70;59.40;;;;;;5078592;28;20930;-67
2023/12/12 04:58:03;;;;;;;0.80;0.70;;;21.70;59.40;;;;;;5070394;28;20542;-67
2023/12/12 05:00:32;;;;;;;0.80;0.80;;;21.70;59.40;;;;;;5067497;28;20483;-67
2023/12/12 05:03:00;;;;;;;0.77;0.77;;;21.70;59.40;;;;;;5066594;28;20819;-67
2023/12/12 05:05:28;;;;;;;0.70;0.70;;;21.70;59.50;;;;;;5068909;28;20453;-66
2023/12/12 05:07:57;;;;;;;0.80;0.80;;;21.70;59.40;;;;;;5070961;28;21024;-68
2023/12/12 05:10:25;;;;;;;0.80;0.70;;;21.70;59.50;;;;;;5070171;28;20506;-66
2023/12/12 05:12:53;;;;;;;0.90;0.80;;;21.70;59.40;;;;;;5075334;28;20444;-66
2023/12/12 05:15:23;;;;;;;0.73;0.70;;;21.80;59.30;;;;;;5077922;28;20455;-67
2023/12/12 05:17:51;;;;;;;0.70;0.70;;;21.80;59.30;;;;;;5068698;28;20507;-68
2023/12/12 05:20:19;;;;;;;0.90;0.90;;;21.80;59.20;;;;;;5073435;28;20548;-68
2023/12/12 05:22:48;;;;;;;1.10;1.00;;;21.90;59.10;;;;;;5069715;28;21975;-66
2023/12/12 05:25:16;;;;;;;0.90;0.90;;;21.90;59.00;;;;;;5073443;28;20498;-66
2023/12/12 05:27:45;;;;;;;1.07;0.97;;;22.00;59.00;;;;;;5069823;28;20467;-66
2023/12/12 05:30:13;;;;;;;0.70;0.70;;;22.00;58.90;;;;;;5071703;28;20457;-67
2023/12/12 05:32:43;;;;;;;0.70;0.70;;;22.10;58.80;;;;;;5073731;28;20458;-66
2023/12/12 05:35:11;;;;;;;1.20;1.10;;;22.10;58.70;;;;;;5073950;28;20509;-67
2023/12/12 05:37:39;;;;;;;0.83;0.83;;;22.10;58.60;;;;;;5068970;28;21187;-66
2023/12/12 05:40:08;;;;;;;0.73;0.73;;;22.20;58.60;;;;;;5069788;28;20468;-66
2023/12/12 05:42:37;;;;;;;0.80;0.80;;;22.20;58.50;;;;;;5069643;28;20463;-66
2023/12/12 05:45:07;;;;;;;1.57;1.00;;;22.30;58.50;;;;;;5065867;28;20457;-66
2023/12/12 05:47:35;;;;;;;0.80;0.80;;;22.30;58.60;;;;;;5063577;28;20455;-66
2023/12/12 05:50:06;;;;;;;1.87;1.00;;;22.40;58.60;;;;;;5068673;28;20809;-66
2023/12/12 05:52:34;;;;;;;1.10;1.10;;;22.40;58.70;;;;;;5067488;28;20446;-66
2023/12/12 05:55:03;;;;;;;1.17;0.90;;;22.50;58.70;;;;;;5061829;28;20480;-66
2023/12/12 05:57:31;;;;;;;0.90;0.90;;;22.50;58.80;;;;;;5063178;28;20465;-68
2023/12/12 06:00:00;;;;;;;1.30;1.07;;;22.60;58.80;;;;;;5064246;28;20453;-66
2023/12/12 06:02:28;;;;;;;0.83;0.80;;;22.60;58.70;;;;;;5057926;28;20457;-68
2023/12/12 06:04:56;;;;;;;1.20;1.10;;;22.70;58.80;;;;;;5062987;28;20493;-67
2023/12/12 06:07:26;;;;;;;0.70;0.70;;;22.70;58.80;;;;;;5070699;28;20522;-66
2023/12/12 06:09:54;;;;;;;0.90;0.90;;;22.70;58.70;;;;;;5071185;28;21056;-67
2023/12/12 06:12:24;;;;;;;1.27;0.93;;;22.70;58.70;;;;;;5068393;28;20548;-67
2023/12/12 06:14:52;;;;;;;1.00;0.90;;;22.70;58.70;;;;;;5072192;28;20489;-67
2023/12/12 06:17:21;;;;;;;1.30;1.10;;;22.70;58.80;;;;;;5066804;28;20505;-67
2023/12/12 06:19:49;;;;;;;2.60;0.90;;;22.70;58.80;;;;;;5072607;28;20457;-67
2023/12/12 06:22:17;;;;;;;1.27;0.93;;;22.70;58.80;;;;;;5066842;28;20982;-66
2023/12/12 06:24:47;;;;;;;1.43;1.00;;;22.70;58.80;;;;;;5074775;28;20452;-67
2023/12/12 06:27:15;;;;;;;0.83;0.70;;;22.60;58.90;;;;;;5071713;28;20468;-67
2023/12/12 06:29:43;;;;;;;1.00;1.00;;;22.60;59.00;;;;;;5080258;28;20522;-66
2023/12/12 06:32:11;;;;;;;1.23;0.60;;;22.60;59.20;;;;;;5077443;28;20454;-68
2023/12/12 06:34:40;;;;;;;0.77;0.73;;;22.60;59.20;;;;;;5084901;28;20497;-67
2023/12/12 06:37:08;;;;;;;1.50;0.83;;;22.50;59.30;;;;;;5072348;28;20536;-67
2023/12/12 06:39:36;;;;;;;0.80;0.80;;;22.50;59.30;;;;;;5103491;27;20809;-67
2023/12/12 06:42:06;;;;;;;1.30;1.30;;;22.50;59.30;;;;;;5076771;28;20445;-67
2023/12/12 06:44:35;;;;;;;1.10;1.00;;;22.50;59.40;;;;;;5072800;28;20542;-67
2023/12/12 06:47:03;;;;;;;2.37;0.90;;;22.40;59.40;;;;;;5067673;28;20457;-67
2023/12/12 06:49:32;;;;;;;1.57;0.90;;;22.40;59.50;;;;;;5080361;28;20499;-68
2023/12/12 06:52:01;;;;;;;0.80;0.80;;;22.40;59.60;;;;;;5075047;28;20791;-66
2023/12/12 06:54:30;;;;;;;2.33;1.07;;;22.40;59.70;;;;;;5075635;28;20498;-67
2023/12/12 06:56:58;;;;;;;0.90;0.90;;;22.40;59.70;;;;;;5077234;28;20456;-67
2023/12/12 06:59:27;;;;;;;1.63;1.17;;;22.40;59.80;;;;;;5088857;28;20510;-67
2023/12/12 07:01:56;;;;;;;1.60;1.17;;;22.40;59.80;;;;;;5085609;28;20450;-67
2023/12/12 07:04:24;;;;;;;0.80;0.73;;;22.40;59.90;;;;;;5079480;28;20487;-67
2023/12/12 07:06:52;;;;;;;2.20;0.93;;;22.40;59.90;;;;;;5111144;27;20452;-66
2023/12/12 07:09:21;;;;;;;1.93;1.00;;;22.40;59.90;;;;;;5086837;28;20453;-68
2023/12/12 07:11:49;;;;;;;1.77;1.00;;;22.40;59.90;;;;;;5076525;28;20526;-66
2023/12/12 07:14:17;;;;;;;1.50;0.80;;;22.40;59.90;;;;;;5082070;28;20544;-66
2023/12/12 07:16:47;;;;;;;2.37;1.00;;;22.40;59.90;;;;;;5068401;28;20971;-69
2023/12/12 07:19:15;;;;;;;1.40;1.30;;;22.50;59.90;;;;;;5075166;28;20441;-67
2023/12/12 07:21:44;;;;;;;1.43;0.87;;;22.50;59.90;;;;;;5080596;28;20500;-67
2023/12/12 07:24:14;;;;;;;2.23;0.97;;;22.50;59.80;;;;;;5085358;28;21033;-66
2023/12/12 07:26:45;;;;;;;1.60;1.07;;;22.50;59.70;;;;;;5081053;28;20460;-66
2023/12/12 07:29:17;;;;;;;1.00;1.00;;;22.50;59.70;;;;;;5079563;28;20441;-66
2023/12/12 07:31:47;;;;;;;1.77;0.90;;;22.50;59.60;;;;;;5072473;28;20449;-67
2023/12/12 07:34:15;;;;;;;1.23;1.10;;;22.60;59.60;;;;;;5073889;28;20472;-66
2023/12/12 07:36:45;;;;;;;1.65;1.08;;;22.60;59.40;;;;;;5063671;28;20442;-69
2023/12/12 07:39:13;;;;;;;0.70;0.70;;;22.60;59.80;;;;;;5078212;28;20190;-70
2023/12/12 07:41:43;;;;;;;1.60;1.17;;;22.60;60.20;;;;;;5073664;28;20453;-69
2023/12/12 07:44:12;;;;;;;3.00;1.70;;;22.70;60.70;;;;;;5071783;28;20453;-71
2023/12/12 07:46:41;;;;;;;3.13;1.50;;;22.70;61.10;;;;;;5082937;28;20453;-68
2023/12/12 07:49:10;;;;;;;4.40;1.70;;;22.70;61.50;;;;;;5072029;28;20477;-69
2023/12/12 07:51:39;;;;;;;5.30;1.80;;;22.70;61.80;;;;;;5069359;28;20446;-70
2023/12/12 07:54:08;;;;;;;4.63;1.60;;;22.80;62.00;;;;;;5075067;28;20502;-68
2023/12/12 07:56:36;;;;;;;1.80;1.50;;;22.80;62.20;;;;;;5070469;28;20478;-68
2023/12/12 07:59:04;;;;;;;3.30;1.70;;;22.80;62.30;;;;;;5072907;28;20456;-68
2023/12/12 08:01:33;;;;;;;3.60;1.50;;;22.80;62.40;;;;;;5070057;28;20454;-68
2023/12/12 08:04:04;;;;;;;2.73;1.70;;;22.80;62.50;;;;;;5071248;28;20482;-73
2023/12/12 08:06:34;;;;;;;2.40;1.60;;;22.80;62.50;;;;;;5068486;28;20451;-70
2023/12/12 08:09:03;;;;;;;2.93;1.83;;;22.80;62.60;;;;;;5081316;28;20454;-71
2023/12/12 08:11:32;;;;;;;4.37;1.70;;;22.80;62.60;;;;;;5079256;28;20458;-71
2023/12/12 08:14:00;;;;;;;6.23;2.23;;;22.80;62.70;;;;;;5080752;28;20453;-69
2023/12/12 08:16:29;;;;;;;5.40;1.30;;;22.80;62.70;;;;;;5078740;28;20560;-73
2023/12/12 08:18:57;;;;;;;4.80;1.80;;;22.70;62.70;;;;;;5073747;28;20440;-68
2023/12/12 08:21:26;;;;;;;2.97;1.70;;;22.70;62.70;;;;;;5079650;28;20545;-68
2023/12/12 08:23:55;;;;;;;2.73;1.60;;;22.70;62.70;;;;;;5079435;28;20500;-68
2023/12/12 08:26:24;;;;;;;4.10;1.27;;;22.70;62.70;;;;;;5069996;28;20801;-69
2023/12/12 08:28:52;;;;;;;4.13;1.60;;;22.70;62.60;;;;;;5072091;28;20805;-69
2023/12/12 08:31:21;;;;;;;3.93;1.80;;;22.70;62.70;;;;;;5078033;28;20449;-68
2023/12/12 08:33:49;;;;;;;3.80;2.07;;;22.70;62.60;;;;;;5087541;28;20894;-67
2023/12/12 08:36:19;;;;;;;3.80;1.33;;;22.70;62.60;;;;;;5083157;28;20973;-68
2023/12/12 08:38:50;;;;;;;1.53;1.40;;;22.70;62.50;;;;;;5070365;28;20441;-69
2023/12/12 08:41:20;;;;;;;4.20;1.40;;;22.70;62.60;;;;;;5073686;28;20479;-68
2023/12/12 08:43:49;;;;;;;2.70;1.40;;;22.70;62.60;;;;;;5073606;28;20446;-69
2023/12/12 08:46:18;;;;;;;3.80;1.40;;;22.70;62.60;;;;;;5069194;28;20446;-71
2023/12/12 08:48:47;;;;;;;3.30;1.77;;;22.80;62.60;;;;;;5070440;28;20452;-68
2023/12/12 08:51:16;;;;;;;1.40;1.17;;;22.70;62.60;;;;;;5070526;28;20454;-69
2023/12/12 08:53:44;;;;;;;5.33;1.60;;;22.80;62.60;;;;;;5072132;28;20465;-78
2023/12/12 08:56:14;;;;;;;1.53;1.33;;;22.80;62.40;;;;;;5080704;28;20521;-77
2023/12/12 08:58:44;;;;;;;3.63;1.50;;;22.80;62.50;;;;;;5070458;28;20438;-81
2023/12/12 09:01:17;;;;;;;3.67;1.90;;;22.80;62.60;;;;;;5072542;28;20801;-80
2023/12/12 09:03:45;;;;;;;5.47;1.47;;;22.80;62.50;;;;;;5072965;28;20523;-75
2023/12/12 09:06:14;;;;;;;5.07;1.30;;;22.80;62.50;;;;;;5070034;28;20470;-72
2023/12/12 09:08:44;;;;;;;2.20;1.20;;;22.80;62.50;;;;;;5071870;28;20474;-72
2023/12/12 09:11:12;;;;;;;2.17;1.13;;;22.80;62.50;;;;;;5069552;28;20570;-72
2023/12/12 09:13:44;;;;;;;4.07;1.30;;;22.80;62.60;;;;;;5069457;28;20457;-70
2023/12/12 09:16:12;;;;;;;2.00;1.30;;;22.80;62.60;;;;;;5104531;27;20459;-73
2023/12/12 09:18:40;;;;;;;2.70;1.40;;;22.90;62.50;;;;;;5073617;28;20482;-71
2023/12/12 09:21:09;;;;;;;2.20;1.40;;;22.90;62.60;;;;;;5070615;28;20455;-74
2023/12/12 09:23:41;;;;;;;3.87;1.60;;;22.90;62.50;;;;;;5070024;28;20453;-71
2023/12/12 09:26:14;;;;;;;2.47;1.67;;;22.90;62.50;;;;;;5070951;28;20485;-71
2023/12/12 09:28:44;;;;;;;3.63;1.30;;;22.90;62.40;;;;;;5072086;28;20445;-71
2023/12/12 09:31:12;;;;;;;2.27;1.20;;;22.90;62.40;;;;;;5070581;28;20446;-74
2023/12/12 09:33:41;;;;;;;2.07;1.30;;;22.90;62.40;;;;;;5077967;28;20433;-70
2023/12/12 09:36:10;;;;;;;5.40;1.87;;;22.90;62.40;;;;;;5081979;28;20502;-71
2023/12/12 09:38:39;;;;;;;2.13;1.10;;;22.90;62.40;;;;;;5072600;28;20502;-72
2023/12/12 09:41:16;;;;;;;1.60;1.40;;;22.90;62.40;;;;;;5072263;28;20504;-72
2023/12/12 09:43:48;;;;;;;3.07;1.17;;;22.90;62.40;;;;;;5070404;28;20446;-71
2023/12/12 09:46:17;;;;;;;2.10;1.80;;;22.80;62.40;;;;;;5069099;28;20461;-72
2023/12/12 09:48:47;;;;;;;2.50;1.17;;;22.80;62.30;;;;;;5067777;28;20931;-63
2023/12/12 09:51:16;;;;;;;1.20;1.07;;;22.80;62.30;;;;;;5062091;28;20538;-65
2023/12/12 09:53:46;;;;;;;4.27;1.90;;;22.80;62.30;;;;;;5073441;28;20460;-65
2023/12/12 09:56:16;;;;;;;2.70;1.67;;;22.80;62.40;;;;;;5073709;28;20518;-65
2023/12/12 09:58:48;;;;;;;2.57;1.30;;;22.80;62.40;;;;;;5078802;28;20449;-64
2023/12/12 10:01:17;;;;;;;1.50;1.37;;;22.80;62.30;;;;;;5068223;28;20449;-66
2023/12/12 10:03:46;;;;;;;2.17;1.20;;;22.80;62.40;;;;;;5070193;28;20962;-66
2023/12/12 10:06:17;;;;;;;1.23;0.90;;;22.80;62.40;;;;;;5070455;28;20532;-65
2023/12/12 10:08:46;;;;;;;2.10;1.50;;;22.90;62.30;;;;;;5070744;28;20458;-65
2023/12/12 10:11:15;;;;;;;1.50;1.40;;;22.90;62.30;;;;;;5071484;28;20447;-65
2023/12/12 10:13:54;;;;;;;3.73;1.50;;;22.90;62.30;;;;;;5067162;28;21043;-73
2023/12/12 10:16:22;;;;;;;2.30;1.30;;;22.90;62.30;;;;;;5075548;28;20671;-66
2023/12/12 10:18:52;;;;;;;3.03;1.27;;;22.90;62.10;;;;;;5064104;28;20446;-67
2023/12/12 10:21:21;;;;;;;1.73;1.57;;;22.90;62.00;;;;;;5069534;28;20445;-66
2023/12/12 10:23:52;;;;;;;2.73;0.97;;;22.90;62.10;;;;;;5088107;28;20462;-65
2023/12/12 10:26:24;;;;;;;3.60;1.43;;;22.90;62.10;;;;;;5073659;28;20466;-67
2023/12/12 10:28:55;;;;;;;3.00;1.13;;;22.90;62.10;;;;;;5069823;28;20953;-67
2023/12/12 10:31:24;;;;;;;0.93;0.93;;;23.00;62.10;;;;;;5065251;28;20483;-66
2023/12/12 10:33:54;;;;;;;1.47;1.37;;;23.00;62.00;;;;;;5070730;28;20450;-71
2023/12/12 10:36:24;;;;;;;1.50;1.40;;;23.00;62.00;;;;;;5069677;28;20921;-66
2023/12/12 10:38:54;;;;;;;1.07;0.97;;;23.00;62.00;;;;;;5075825;28;20457;-68
2023/12/12 10:41:22;;;;;;;1.47;1.37;;;23.00;62.10;;;;;;5077705;28;20922;-66
2023/12/12 10:44:01;;;;;;;0.90;0.80;;;23.00;62.10;;;;;;5076915;28;20456;-67
2023/12/12 10:46:32;;;;;;;1.30;1.20;;;23.00;62.10;;;;;;5071723;28;20484;-67
2023/12/12 10:49:03;;;;;;;1.33;1.00;;;23.00;62.20;;;;;;5077471;28;20433;-67
2023/12/12 10:51:31;;;;;;;2.17;1.40;;;23.00;62.10;;;;;;5066850;28;20486;-67
2023/12/12 10:54:02;;;;;;;3.10;1.47;;;23.00;62.10;;;;;;5076190;28;20454;-68
2023/12/12 10:56:35;;;;;;;2.27;1.20;;;23.00;62.10;;;;;;5079485;28;20473;-69
2023/12/12 10:59:06;;;;;;;1.90;1.23;;;23.00;62.10;;;;;;5080024;28;20446;-68
2023/12/12 11:01:56;;;;;;;4.60;0.97;;;23.00;62.00;;;;;;5070541;28;20538;-68
2023/12/12 11:04:25;;;;;;;1.40;1.30;;;23.00;62.00;;;;;;5072161;28;20539;-69
2023/12/12 11:06:54;;;;;;;1.03;1.03;;;23.00;62.00;;;;;;5075999;28;20554;-67
2023/12/12 11:09:22;;;;;;;3.07;1.53;;;23.00;62.00;;;;;;5081641;28;20465;-69
2023/12/12 11:11:53;;;;;;;4.10;1.10;;;23.00;62.00;;;;;;5077364;28;20460;-68
2023/12/12 11:14:25;;;;;;;2.50;1.40;;;23.00;61.90;;;;;;5071612;28;20508;-68
2023/12/12 11:16:59;;;;;;;2.43;1.47;;;22.90;62.00;;;;;;5077921;28;20470;-70
2023/12/12 11:19:28;;;;;;;2.07;1.40;;;23.00;62.00;;;;;;5072166;28;20450;-68
2023/12/12 11:21:57;;;;;;;1.57;1.03;;;23.00;61.90;;;;;;5077033;28;20502;-68
2023/12/12 11:25:02;;;;;;;2.00;1.17;;;23.00;62.10;;;;;;5080116;28;20456;-67
2023/12/12 11:27:31;;;;;;;1.97;1.00;;;23.00;62.30;;;;;;5074400;28;20460;-67
2023/12/12 11:30:02;;;;;;;1.63;1.23;;;23.00;62.50;;;;;;5074002;28;20435;-68
2023/12/12 11:32:33;;;;;;;1.87;1.07;;;23.00;62.60;;;;;;5070279;28;20997;-69
2023/12/12 11:35:06;;;;;;;1.90;1.17;;;23.10;62.70;;;;;;5080412;28;20426;-69
2023/12/12 11:37:40;;;;;;;1.20;1.10;;;23.10;62.70;;;;;;5070085;28;20466;-70
2023/12/12 11:40:11;;;;;;;1.10;1.00;;;23.10;62.70;;;;;;5068332;28;20999;-67
2023/12/12 11:42:42;;;;;;;1.43;1.03;;;23.10;62.70;;;;;;5071679;28;20454;-67
2023/12/12 11:45:12;;;;;;;1.33;1.10;;;23.10;62.70;;;;;;5073516;28;20464;-67
2023/12/12 11:47:42;;;;;;;1.63;1.20;;;23.20;62.70;;;;;;5073915;28;20985;-67
2023/12/12 11:50:35;;;;;;;1.87;1.70;;;23.20;62.70;;;;;;5073548;28;20497;-66
2023/12/12 11:53:04;;;;;;;2.67;1.50;;;23.20;62.70;;;;;;5066858;28;20508;-71
2023/12/12 11:55:35;;;;;;;1.80;1.47;;;23.20;62.60;;;;;;5072093;28;20781;-70
2023/12/12 11:58:05;;;;;;;2.50;1.60;;;23.20;62.50;;;;;;5064895;28;20502;-72
2023/12/12 12:00:37;;;;;;;1.67;1.17;;;23.10;62.40;;;;;;5074518;28;20437;-73
2023/12/12 12:03:08;;;;;;;2.07;1.20;;;23.10;62.40;;;;;;5076138;28;20484;-71
2023/12/12 12:05:36;;;;;;;3.00;1.20;;;23.10;62.30;;;;;;5060722;28;20437;-71
2023/12/12 12:08:07;;;;;;;1.53;1.03;;;23.10;62.30;;;;;;5072326;28;20974;-72
2023/12/12 12:10:35;;;;;;;1.60;1.23;;;23.10;62.30;;;;;;5068196;28;20553;-71
2023/12/12 12:13:03;;;;;;;1.37;1.27;;;23.00;62.30;;;;;;5071624;28;20448;-71
2023/12/12 12:15:32;;;;;;;1.73;1.50;;;23.00;62.30;;;;;;5071688;28;20490;-71
2023/12/12 12:18:01;;;;;;;1.97;1.60;;;23.00;62.30;;;;;;5067900;28;20540;-71
2023/12/12 12:20:30;;;;;;;1.93;1.27;;;22.90;62.30;;;;;;5070314;28;20525;-70
2023/12/12 12:22:58;;;;;;;1.80;1.60;;;22.90;62.30;;;;;;5066152;28;21173;-72
2023/12/12 12:25:27;;;;;;;2.43;1.50;;;22.90;62.30;;;;;;5070895;28;20543;-71
2023/12/12 12:27:56;;;;;;;2.70;1.07;;;22.90;62.30;;;;;;5071472;28;20450;-72
2023/12/12 12:30:25;;;;;;;3.00;1.30;;;22.90;62.30;;;;;;5070239;28;21454;-78
2023/12/12 12:32:58;;;;;;;1.67;1.57;;;22.90;62.30;;;;;;5062460;28;20953;-74
2023/12/12 12:35:28;;;;;;;9.77;2.13;;;22.90;62.40;;;;;;5067060;28;20721;-73
2023/12/12 12:37:57;;;;;;;2.93;1.33;;;22.90;62.50;;;;;;5075174;28;20962;-73
2023/12/12 12:40:34;;;;;;;2.17;1.70;;;22.90;62.50;;;;;;5072084;28;20529;-72
2023/12/12 12:43:04;;;;;;;1.80;1.13;;;22.90;62.60;;;;;;5070133;28;20982;-72
2023/12/12 12:45:34;;;;;;;2.50;1.67;;;23.00;62.60;;;;;;5068929;28;20445;-72
2023/12/12 12:48:05;;;;;;;2.03;1.30;;;23.00;62.60;;;;;;5069319;28;20562;-72
2023/12/12 12:50:34;;;;;;;2.50;1.63;;;23.00;62.50;;;;;;5064754;28;20458;-74
2023/12/12 12:53:03;;;;;;;1.90;1.80;;;23.00;62.50;;;;;;5071050;28;20458;-72
2023/12/12 12:55:32;;;;;;;3.53;1.70;;;23.00;62.50;;;;;;5068771;28;20467;-73
2023/12/12 12:58:00;;;;;;;4.00;1.50;;;23.00;62.50;;;;;;5069821;28;20951;-71